createdAt,value
2018-05-08T00:02:19.045Z,5.03
2018-05-08T00:04:46.460Z,4.18
2018-05-08T00:07:13.870Z,3.70
2018-05-08T00:09:41.292Z,4.40
2018-05-08T00:12:09.480Z,3.97
2018-05-08T00:14:37.674Z,3.50
2018-05-08T00:17:05.085Z,4.00
2018-05-08T00:19:32.586Z,4.15
2018-05-08T00:22:00.017Z,4.20
2018-05-08T00:24:27.430Z,4.35
2018-05-08T00:26:55.653Z,4.25
2018-05-08T00:29:23.149Z,4.10
2018-05-08T00:31:50.564Z,4.30
2018-05-08T00:34:18.736Z,3.30
2018-05-08T00:36:46.157Z,4.65
2018-05-08T00:39:13.573Z,4.20
2018-05-08T00:41:40.992Z,4.78
2018-05-08T00:44:08.456Z,4.05
2018-05-08T00:46:35.874Z,5.15
2018-05-08T00:49:03.304Z,4.82
2018-05-08T00:51:30.717Z,3.45
2018-05-08T00:53:58.129Z,4.20
2018-05-08T00:56:25.556Z,3.85
2018-05-08T00:58:52.974Z,3.87
2018-05-08T01:01:20.389Z,3.40
2018-05-08T01:03:47.872Z,4.18
2018-05-08T01:06:16.113Z,4.03
2018-05-08T01:08:43.529Z,3.95
2018-05-08T01:11:10.941Z,4.35
2018-05-08T01:13:38.368Z,4.35
2018-05-08T01:16:07.337Z,3.78
2018-05-08T01:18:34.759Z,3.90
2018-05-08T01:21:02.929Z,3.42
2018-05-08T01:23:30.432Z,4.28
2018-05-08T01:25:57.905Z,3.85
2018-05-08T01:28:25.413Z,3.80
2018-05-08T01:30:52.828Z,3.65
2018-05-08T01:33:21.041Z,4.20
2018-05-08T01:35:48.449Z,3.83
2018-05-08T01:38:15.865Z,3.62
2018-05-08T01:40:43.280Z,3.47
2018-05-08T01:43:10.738Z,4.00
2018-05-08T01:45:38.209Z,3.72
2018-05-08T01:48:05.629Z,3.83
2018-05-08T01:50:33.800Z,3.67
2018-05-08T01:53:01.292Z,4.10
2018-05-08T01:55:29.469Z,4.10
2018-05-08T01:57:57.649Z,4.15
2018-05-08T02:00:25.070Z,4.80
2018-05-08T02:02:52.522Z,4.28
2018-05-08T02:05:19.948Z,3.40
2018-05-08T02:07:48.129Z,3.80
2018-05-08T02:10:15.546Z,4.25
2018-05-08T02:12:42.962Z,3.83
2018-05-08T02:15:10.390Z,3.50
2018-05-08T02:17:37.804Z,3.75
2018-05-08T02:20:05.220Z,3.75
2018-05-08T02:22:32.633Z,4.28
2018-05-08T02:25:00.063Z,4.10
2018-05-08T02:27:27.469Z,3.72
2018-05-08T02:29:54.889Z,4.03
2018-05-08T02:32:22.365Z,4.07
2018-05-08T02:34:49.781Z,3.50
2018-05-08T02:37:17.192Z,4.87
2018-05-08T02:39:45.385Z,3.97
2018-05-08T02:42:13.577Z,4.10
2018-05-08T02:44:40.997Z,4.07
2018-05-08T02:47:09.958Z,3.40
2018-05-08T02:49:37.397Z,3.65
2018-05-08T02:52:04.818Z,3.75
2018-05-08T02:54:32.230Z,3.90
2018-05-08T02:56:59.653Z,3.67
2018-05-08T02:59:27.065Z,4.40
2018-05-08T03:01:54.569Z,4.15
2018-05-08T03:04:21.999Z,3.45
2018-05-08T03:06:49.424Z,4.07
2018-05-08T03:09:16.826Z,3.62
2018-05-08T03:11:44.245Z,4.55
2018-05-08T03:14:11.661Z,4.18
2018-05-08T03:16:39.081Z,4.22
2018-05-08T03:19:06.483Z,4.00
2018-05-08T03:21:33.922Z,4.28
2018-05-08T03:24:01.369Z,3.85
2018-05-08T03:26:29.553Z,4.07
2018-05-08T03:28:57.778Z,3.50
2018-05-08T03:31:25.194Z,3.47
2018-05-08T03:33:52.601Z,4.80
2018-05-08T03:36:20.072Z,3.97
2018-05-08T03:38:47.490Z,4.80
2018-05-08T03:41:15.018Z,3.55
2018-05-08T03:43:42.429Z,4.57
2018-05-08T03:46:09.857Z,3.85
2018-05-08T03:48:37.274Z,4.68
2018-05-08T03:51:04.693Z,4.30
2018-05-08T03:53:32.114Z,4.30
2018-05-08T03:55:59.713Z,3.95
2018-05-08T03:58:27.073Z,4.40
2018-05-08T04:01:07.137Z,4.30
2018-05-08T04:03:46.492Z,3.80
2018-05-08T04:09:13.240Z,4.35
2018-05-08T04:11:40.682Z,4.40
2018-05-08T04:14:08.097Z,4.12
2018-05-08T04:16:35.526Z,4.05
2018-05-08T04:19:02.933Z,4.18
2018-05-08T04:21:31.873Z,4.72
2018-05-08T04:24:00.043Z,4.37
2018-05-08T04:26:27.554Z,4.25
2018-05-08T04:28:55.825Z,4.35
2018-05-08T04:31:24.004Z,4.40
2018-05-08T04:33:52.201Z,4.28
2018-05-08T04:36:20.384Z,5.03
2018-05-08T04:38:48.560Z,5.10
2018-05-08T04:41:16.854Z,5.20
2018-05-08T04:43:45.041Z,4.60
2018-05-08T04:46:13.232Z,4.75
2018-05-08T04:48:40.664Z,4.87
2018-05-08T04:51:08.194Z,5.43
2018-05-08T04:53:35.616Z,5.53
2018-05-08T04:56:03.033Z,4.55
2018-05-08T04:58:30.445Z,4.75
2018-05-08T05:00:57.860Z,5.30
2018-05-08T05:03:25.268Z,4.95
2018-05-08T05:05:52.693Z,5.45
2018-05-08T05:08:20.873Z,4.45
2018-05-08T05:10:49.061Z,4.72
2018-05-08T05:13:17.245Z,3.83
2018-05-08T05:15:45.448Z,3.90
2018-05-08T05:18:12.861Z,4.20
2018-05-08T05:20:40.285Z,4.00
2018-05-08T05:23:07.694Z,3.80
2018-05-08T05:25:35.112Z,3.95
2018-05-08T05:28:03.297Z,4.00
2018-05-08T05:30:31.485Z,3.47
2018-05-08T05:32:59.660Z,3.83
2018-05-08T05:35:27.872Z,4.43
2018-05-08T05:37:55.289Z,3.90
2018-05-08T05:40:22.701Z,3.60
2018-05-08T05:42:50.884Z,4.50
2018-05-08T05:45:19.065Z,3.72
2018-05-08T05:47:47.253Z,4.03
2018-05-08T05:50:15.440Z,3.78
2018-05-08T05:52:43.621Z,3.25
2018-05-08T05:55:11.845Z,3.45
2018-05-08T05:57:39.311Z,3.50
2018-05-08T06:00:06.798Z,3.65
2018-05-08T06:02:34.145Z,3.60
2018-05-08T06:05:01.561Z,3.22
2018-05-08T06:07:28.981Z,3.33
2018-05-08T06:09:56.457Z,3.17
2018-05-08T06:12:23.881Z,3.40
2018-05-08T06:14:51.292Z,3.67
2018-05-08T06:17:18.766Z,3.22
2018-05-08T06:19:46.125Z,3.50
2018-05-08T06:22:13.549Z,3.10
2018-05-08T06:24:40.965Z,2.85
2018-05-08T06:27:08.442Z,2.70
2018-05-08T06:29:35.848Z,3.80
2018-05-08T06:32:03.265Z,2.70
2018-05-08T06:34:30.746Z,2.95
2018-05-08T06:36:58.173Z,2.87
2018-05-08T06:39:25.650Z,3.20
2018-05-08T06:41:53.030Z,3.47
2018-05-08T06:44:21.216Z,2.83
2018-05-08T06:46:49.400Z,3.40
2018-05-08T06:49:17.622Z,2.70
2018-05-08T06:51:45.040Z,2.40
2018-05-08T06:54:12.465Z,2.72
2018-05-08T06:56:39.906Z,2.63
2018-05-08T06:59:08.081Z,2.73
2018-05-08T07:01:36.310Z,2.53
2018-05-08T07:04:03.717Z,2.80
2018-05-08T07:06:31.141Z,2.73
2018-05-08T07:08:58.558Z,3.23
2018-05-08T07:11:26.041Z,2.60
2018-05-08T07:13:54.221Z,2.50
2018-05-08T07:16:21.837Z,2.57
2018-05-08T07:18:49.245Z,2.70
2018-05-08T07:21:16.678Z,2.53
2018-05-08T07:23:44.132Z,3.07
2018-05-08T07:26:11.576Z,2.70
2018-05-08T07:28:39.002Z,2.83
2018-05-08T07:31:06.455Z,3.15
2018-05-08T07:33:34.622Z,2.65
2018-05-08T07:36:02.825Z,2.90
2018-05-08T07:38:30.293Z,2.90
2018-05-08T07:40:57.775Z,2.97
2018-05-08T07:43:25.180Z,2.65
2018-05-08T07:45:52.607Z,2.97
2018-05-08T07:48:20.017Z,2.83
2018-05-08T07:50:47.441Z,2.75
2018-05-08T07:53:14.908Z,2.60
2018-05-08T07:55:42.378Z,2.45
2018-05-08T07:58:09.809Z,2.75
2018-05-08T08:00:37.224Z,2.83
2018-05-08T08:03:04.640Z,2.60
2018-05-08T08:05:32.064Z,3.20
2018-05-08T08:07:59.480Z,3.03
2018-05-08T08:10:26.897Z,2.78
2018-05-08T08:12:54.317Z,3.05
2018-05-08T08:15:21.733Z,3.45
2018-05-08T08:17:49.152Z,3.10
2018-05-08T08:20:16.672Z,3.33
2018-05-08T08:22:44.101Z,2.55
2018-05-08T08:25:11.510Z,3.00
2018-05-08T08:27:38.941Z,3.17
2018-05-08T08:30:06.362Z,2.90
2018-05-08T08:32:33.808Z,2.97
2018-05-08T08:35:01.258Z,2.65
2018-05-08T08:37:28.685Z,2.70
2018-05-08T08:39:56.111Z,2.67
2018-05-08T08:42:24.322Z,2.80
2018-05-08T08:44:51.735Z,2.60
2018-05-08T08:47:19.154Z,2.80
2018-05-08T08:49:46.569Z,2.60
2018-05-08T08:52:13.989Z,2.80
2018-05-08T08:54:41.487Z,2.33
2018-05-08T08:57:08.910Z,2.67
2018-05-08T08:59:37.091Z,3.03
2018-05-08T09:02:05.278Z,2.95
2018-05-08T09:04:33.462Z,2.85
2018-05-08T09:07:01.666Z,2.80
2018-05-08T09:09:29.870Z,2.60
2018-05-08T09:11:57.314Z,2.95
2018-05-08T09:14:25.489Z,2.87
2018-05-08T09:16:53.672Z,2.60
2018-05-08T09:19:21.289Z,3.10
2018-05-08T09:21:48.745Z,2.62
2018-05-08T09:24:16.205Z,2.85
2018-05-08T09:26:44.386Z,2.80
2018-05-08T09:29:12.568Z,3.17
2018-05-08T09:31:39.999Z,2.70
2018-05-08T09:34:07.545Z,2.50
2018-05-08T09:36:34.964Z,2.20
2018-05-08T09:39:02.386Z,2.60
2018-05-08T09:41:29.801Z,2.08
2018-05-08T09:43:57.229Z,2.40
2018-05-08T09:46:24.657Z,2.80
2018-05-08T09:48:52.950Z,2.55
2018-05-08T09:51:20.334Z,2.65
2018-05-08T09:53:47.753Z,2.83
2018-05-08T09:56:15.185Z,2.50
2018-05-08T09:58:42.654Z,2.97
2018-05-08T10:01:10.735Z,2.22
2018-05-08T10:03:38.153Z,2.78
2018-05-08T10:06:05.566Z,2.50
2018-05-08T10:08:33.781Z,3.00
2018-05-08T10:11:01.201Z,2.05
2018-05-08T10:13:29.450Z,2.25
2018-05-08T10:15:56.883Z,2.35
2018-05-08T10:18:24.340Z,2.40
2018-05-08T10:20:51.757Z,2.20
2018-05-08T10:23:19.201Z,2.92
2018-05-08T10:25:46.649Z,2.40
2018-05-08T10:28:14.073Z,2.10
2018-05-08T10:30:42.171Z,2.00
2018-05-08T10:33:09.578Z,2.20
2018-05-08T10:35:36.993Z,2.40
2018-05-08T10:38:04.424Z,2.53
2018-05-08T10:40:31.840Z,2.30
2018-05-08T10:42:59.273Z,2.33
2018-05-08T10:45:26.688Z,2.10
2018-05-08T10:47:54.119Z,2.33
2018-05-08T10:50:21.580Z,2.10
2018-05-08T10:52:49.009Z,2.70
2018-05-08T10:55:17.193Z,2.10
2018-05-08T10:57:45.389Z,2.55
2018-05-08T11:00:13.596Z,2.37
2018-05-08T11:02:41.073Z,2.20
2018-05-08T11:05:08.541Z,2.30
2018-05-08T11:07:35.964Z,2.40
2018-05-08T11:10:03.382Z,2.58
2018-05-08T11:12:30.885Z,2.37
2018-05-08T11:14:58.221Z,2.20
2018-05-08T11:17:25.662Z,2.60
2018-05-08T11:19:53.845Z,2.28
2018-05-08T11:22:22.054Z,2.70
2018-05-08T11:24:50.219Z,2.28
2018-05-08T11:27:17.830Z,2.50
2018-05-08T11:29:45.232Z,2.40
2018-05-08T11:32:12.669Z,2.50
2018-05-08T11:34:40.137Z,2.60
2018-05-08T11:37:08.316Z,2.50
2018-05-08T11:39:35.794Z,1.87
2018-05-08T11:42:03.256Z,2.65
2018-05-08T11:44:30.681Z,2.42
2018-05-08T11:46:58.097Z,1.92
2018-05-08T11:49:25.513Z,2.50
2018-05-08T11:51:52.989Z,2.50
2018-05-08T11:54:20.366Z,2.60
2018-05-08T11:56:47.868Z,2.20
2018-05-08T11:59:15.293Z,1.95
2018-05-08T12:01:42.712Z,2.55
2018-05-08T12:04:10.141Z,2.20
2018-05-08T12:06:37.658Z,2.28
2018-05-08T12:09:05.918Z,2.60
2018-05-08T12:11:34.093Z,2.72
2018-05-08T12:14:02.286Z,2.65
2018-05-08T12:16:30.511Z,2.20
2018-05-08T12:18:57.956Z,1.77
2018-05-08T12:21:26.130Z,2.08
2018-05-08T12:23:54.321Z,2.23
2018-05-08T12:26:22.504Z,2.12
2018-05-08T12:28:50.696Z,1.90
2018-05-08T12:31:18.889Z,2.17
2018-05-08T12:33:47.076Z,2.37
2018-05-08T12:36:15.281Z,2.50
2018-05-08T12:38:43.475Z,2.40
2018-05-08T12:41:10.889Z,1.90
2018-05-08T12:43:38.317Z,1.83
2018-05-08T12:46:05.737Z,2.10
2018-05-08T12:48:33.162Z,2.15
2018-05-08T12:51:00.618Z,2.05
2018-05-08T12:53:28.042Z,1.90
2018-05-08T12:55:55.478Z,2.60
2018-05-08T12:58:22.909Z,2.30
2018-05-08T13:00:50.329Z,2.17
2018-05-08T13:03:17.758Z,2.20
2018-05-08T13:05:45.179Z,2.15
2018-05-08T13:08:12.605Z,2.30
2018-05-08T13:10:40.025Z,2.83
2018-05-08T13:13:08.969Z,1.95
2018-05-08T13:15:36.394Z,2.20
2018-05-08T13:18:03.816Z,2.10
2018-05-08T13:20:31.285Z,2.05
2018-05-08T13:22:58.706Z,2.15
2018-05-08T13:25:26.130Z,1.92
2018-05-08T13:27:53.573Z,1.98
2018-05-08T13:30:21.744Z,2.20
2018-05-08T13:32:49.938Z,2.17
2018-05-08T13:35:18.122Z,2.20
2018-05-08T13:37:46.321Z,2.05
2018-05-08T13:40:14.496Z,2.40
2018-05-08T13:42:42.721Z,2.20
2018-05-08T13:45:10.185Z,2.30
2018-05-08T13:47:37.645Z,2.50
2018-05-08T13:50:05.219Z,2.55
2018-05-08T13:52:32.641Z,2.05
2018-05-08T13:55:00.142Z,2.25
2018-05-08T13:57:27.493Z,2.15
2018-05-08T13:59:54.929Z,2.83
2018-05-08T14:02:22.380Z,2.30
2018-05-08T14:04:49.790Z,1.90
2018-05-08T14:07:17.204Z,2.50
2018-05-08T14:09:44.625Z,2.20
2018-05-08T14:12:12.039Z,2.20
2018-05-08T14:14:39.521Z,2.08
2018-05-08T14:17:06.956Z,2.62
2018-05-08T14:19:34.367Z,2.40
2018-05-08T14:22:01.782Z,2.22
2018-05-08T14:24:29.211Z,2.17
2018-05-08T14:26:56.642Z,2.00
2018-05-08T14:29:24.837Z,2.17
2018-05-08T14:31:52.258Z,2.70
2018-05-08T14:34:19.686Z,2.50
2018-05-08T14:36:47.101Z,2.25
2018-05-08T14:39:14.520Z,2.50
2018-05-08T14:41:41.941Z,2.30
2018-05-08T14:44:09.474Z,3.05
2018-05-08T14:46:36.890Z,2.42
2018-05-08T14:49:04.317Z,2.50
2018-05-08T14:51:31.787Z,2.42
2018-05-08T14:53:59.209Z,2.40
2018-05-08T14:56:26.727Z,2.10
2018-05-08T14:58:54.139Z,2.03
2018-05-08T15:01:21.553Z,2.05
2018-05-08T15:03:48.977Z,2.90
2018-05-08T15:06:16.397Z,2.33
2018-05-08T15:08:43.826Z,2.37
2018-05-08T15:11:11.346Z,2.72
2018-05-08T15:13:38.809Z,2.20
2018-05-08T15:16:06.221Z,2.30
2018-05-08T15:18:33.650Z,2.40
2018-05-08T15:21:01.070Z,2.12
2018-05-08T15:23:28.509Z,2.35
2018-05-08T15:25:55.929Z,2.60
2018-05-08T15:28:24.113Z,2.37
2018-05-08T15:30:52.292Z,2.70
2018-05-08T15:33:19.717Z,2.30
2018-05-08T15:35:47.132Z,2.25
2018-05-08T15:38:15.321Z,3.30
2018-05-08T15:40:42.735Z,2.30
2018-05-08T15:43:10.301Z,2.50
2018-05-08T15:45:38.464Z,2.17
2018-05-08T15:48:06.649Z,3.37
2018-05-08T15:50:34.833Z,2.03
2018-05-08T15:53:03.048Z,1.90
2018-05-08T15:55:31.205Z,2.45
2018-05-08T15:57:58.707Z,2.25
2018-05-08T16:00:26.166Z,1.98
2018-05-08T16:02:53.597Z,2.47
2018-05-08T16:05:22.541Z,1.95
2018-05-08T16:07:49.956Z,2.40
2018-05-08T16:10:17.373Z,2.08
2018-05-08T16:12:44.785Z,2.45
2018-05-08T16:15:12.225Z,2.10
2018-05-08T16:17:39.621Z,2.20
2018-05-08T16:20:07.120Z,2.15
2018-05-08T16:22:35.229Z,2.40
2018-05-08T16:25:03.437Z,2.10
2018-05-08T16:27:30.845Z,2.30
2018-05-08T16:29:58.375Z,1.90
2018-05-08T16:32:25.829Z,2.10
2018-05-08T16:34:54.026Z,2.22
2018-05-08T16:37:21.446Z,2.95
2018-05-08T16:39:48.868Z,2.60
2018-05-08T16:42:16.448Z,2.15
2018-05-08T16:44:44.609Z,2.40
2018-05-08T16:47:12.797Z,2.55
2018-05-08T16:49:40.996Z,2.60
2018-05-08T16:52:08.405Z,2.37
2018-05-08T16:54:35.834Z,2.60
2018-05-08T16:57:03.250Z,2.97
2018-05-08T16:59:30.676Z,2.53
2018-05-08T17:01:58.116Z,2.67
2018-05-08T17:04:26.297Z,2.75
2018-05-08T17:06:53.713Z,2.67
2018-05-08T17:09:21.117Z,2.42
2018-05-08T17:11:48.555Z,3.05
2018-05-08T17:14:15.959Z,2.92
2018-05-08T17:16:43.378Z,2.60
2018-05-08T17:19:10.877Z,2.78
2018-05-08T17:21:38.269Z,3.00
2018-05-08T17:24:05.677Z,2.70
2018-05-08T17:26:33.095Z,3.37
2018-05-08T17:29:00.523Z,2.30
2018-05-08T17:31:28.692Z,2.30
2018-05-08T17:33:56.877Z,2.70
2018-05-08T17:36:25.060Z,2.70
2018-05-08T17:38:53.237Z,2.15
2018-05-08T17:41:20.656Z,3.05
2018-05-08T17:43:48.064Z,2.60
2018-05-08T17:46:15.486Z,3.95
2018-05-08T17:48:42.893Z,2.70
2018-05-08T17:51:10.317Z,3.03
2018-05-08T17:53:37.798Z,2.80
2018-05-08T17:56:05.266Z,3.00
2018-05-08T17:58:32.747Z,3.35
2018-05-08T18:01:00.145Z,3.10
2018-05-08T18:03:27.652Z,3.20
2018-05-08T18:05:55.830Z,2.80
2018-05-08T18:08:24.022Z,3.12
2018-05-08T18:10:52.198Z,2.60
2018-05-08T18:13:19.625Z,3.20
2018-05-08T18:15:47.070Z,3.30
2018-05-08T18:18:14.546Z,3.37
2018-05-08T18:20:41.958Z,2.80
2018-05-08T18:23:09.388Z,3.08
2018-05-08T18:25:36.989Z,3.20
2018-05-08T18:28:04.316Z,3.12
2018-05-08T18:30:31.728Z,3.45
2018-05-08T18:32:59.140Z,3.60
2018-05-08T18:35:27.452Z,3.25
2018-05-08T18:37:54.873Z,3.90
2018-05-08T18:40:22.293Z,3.05
2018-05-08T18:42:49.717Z,3.40
2018-05-08T18:45:17.904Z,3.45
2018-05-08T18:47:45.320Z,3.35
2018-05-08T18:50:12.787Z,3.42
2018-05-08T18:52:40.254Z,3.30
2018-05-08T18:55:07.688Z,3.25
2018-05-08T18:57:35.128Z,3.28
2018-05-08T19:00:08.299Z,3.90
2018-05-08T19:02:35.709Z,3.75
2018-05-08T19:05:03.129Z,3.37
2018-05-08T19:07:30.621Z,3.20
2018-05-08T19:09:58.042Z,3.80
2018-05-08T19:12:25.454Z,3.87
2018-05-08T19:14:58.629Z,3.20
2018-05-08T19:17:26.800Z,3.10
2018-05-08T19:19:59.983Z,4.10
2018-05-08T19:22:27.391Z,4.10
2018-05-08T19:24:54.813Z,3.65
2018-05-08T19:27:22.263Z,3.50
2018-05-08T19:29:55.285Z,3.58
2018-05-08T19:32:22.701Z,3.42
2018-05-08T19:34:56.546Z,3.60
2018-05-08T19:37:29.622Z,4.32
2018-05-08T19:39:57.841Z,4.10
2018-05-08T19:42:25.258Z,3.95
2018-05-08T19:44:52.692Z,3.90
2018-05-08T19:47:20.103Z,3.53
2018-05-08T19:49:47.540Z,3.70
2018-05-08T19:52:14.950Z,3.75
2018-05-08T19:54:42.379Z,3.50
2018-05-08T19:57:09.783Z,4.00
2018-05-08T19:59:37.403Z,3.72
2018-05-08T20:02:05.560Z,3.40
2018-05-08T20:04:33.741Z,3.53
2018-05-08T20:07:01.925Z,4.18
2018-05-08T20:09:29.341Z,4.03
2018-05-08T20:11:56.762Z,3.12
2018-05-08T20:14:24.262Z,3.58
2018-05-08T20:16:51.669Z,3.80
2018-05-08T20:19:19.085Z,3.58
2018-05-08T20:21:47.257Z,3.92
2018-05-08T20:24:14.761Z,3.83
2018-05-08T20:26:42.237Z,4.35
2018-05-08T20:29:10.389Z,4.20
2018-05-08T20:31:38.582Z,3.30
2018-05-08T20:34:06.768Z,3.80
2018-05-08T20:36:34.961Z,3.80
2018-05-08T20:39:03.146Z,4.18
2018-05-08T20:41:31.333Z,3.80
2018-05-08T20:43:59.505Z,3.60
2018-05-08T20:46:26.929Z,4.55
2018-05-08T20:48:54.349Z,3.70
2018-05-08T20:51:23.269Z,4.35
2018-05-08T20:53:51.445Z,4.15
2018-05-08T20:56:18.856Z,4.28
2018-05-08T20:58:46.269Z,4.00
2018-05-08T21:01:13.749Z,4.00
2018-05-08T21:03:41.102Z,4.03
2018-05-08T21:06:08.523Z,3.95
2018-05-08T21:08:35.933Z,4.68
2018-05-08T21:11:03.344Z,3.90
2018-05-08T21:13:31.521Z,4.00
2018-05-08T21:15:59.735Z,4.37
2018-05-08T21:18:27.144Z,4.28
2018-05-08T21:20:54.575Z,4.55
2018-05-08T21:23:21.980Z,5.00
2018-05-08T21:25:49.402Z,4.70
2018-05-08T21:28:22.564Z,4.62
2018-05-08T21:30:55.794Z,4.70
2018-05-08T21:33:23.960Z,4.80
2018-05-08T21:35:51.383Z,5.68
2018-05-08T21:38:18.785Z,5.78
2018-05-08T21:40:46.218Z,4.65
2018-05-08T21:43:13.613Z,5.10
2018-05-08T21:45:41.029Z,4.75
2018-05-08T21:48:09.238Z,4.90
2018-05-08T21:50:36.652Z,4.25
2018-05-08T21:53:04.069Z,4.90
2018-05-08T21:55:31.497Z,4.53
2018-05-08T21:57:58.906Z,4.47
2018-05-08T22:00:26.326Z,5.03
2018-05-08T22:02:53.737Z,4.70
2018-05-08T22:05:21.926Z,5.10
2018-05-08T22:07:50.106Z,4.45
2018-05-08T22:10:18.933Z,4.68
2018-05-08T22:12:46.333Z,4.50
2018-05-08T22:15:13.775Z,4.43
2018-05-08T22:17:41.188Z,5.45
2018-05-08T22:20:08.611Z,4.60
2018-05-08T22:22:36.041Z,5.03
2018-05-08T22:25:03.458Z,4.32
2018-05-08T22:27:30.909Z,5.00
2018-05-08T22:29:58.327Z,5.07
2018-05-08T22:32:25.740Z,4.45
2018-05-08T22:34:53.160Z,3.83
2018-05-08T22:37:20.569Z,4.90
2018-05-08T22:39:48.745Z,5.25
2018-05-08T22:42:16.935Z,5.65
2018-05-08T22:44:45.122Z,5.15
2018-05-08T22:47:13.309Z,5.18
2018-05-08T22:49:41.522Z,4.80
2018-05-08T22:52:08.941Z,4.90
2018-05-08T22:54:36.345Z,5.30
2018-05-08T22:57:04.537Z,5.40
2018-05-08T22:59:31.944Z,4.72
2018-05-08T23:01:59.365Z,5.18
2018-05-08T23:04:27.542Z,4.62
2018-05-08T23:06:54.956Z,5.07
2018-05-08T23:09:22.370Z,5.53
2018-05-08T23:11:49.797Z,4.60
2018-05-08T23:14:17.208Z,6.00
2018-05-08T23:16:44.635Z,5.80
2018-05-08T23:19:12.038Z,5.57
2018-05-08T23:21:39.452Z,5.18
2018-05-08T23:24:06.857Z,5.40
2018-05-08T23:26:34.301Z,6.75
2018-05-08T23:29:02.452Z,5.57
2018-05-08T23:31:30.670Z,5.28
2018-05-08T23:33:58.146Z,5.32
2018-05-08T23:36:25.556Z,5.25
2018-05-08T23:38:52.978Z,5.30
2018-05-08T23:41:20.452Z,4.50
2018-05-08T23:43:47.857Z,5.60
2018-05-08T23:46:15.278Z,5.50
2018-05-08T23:48:42.758Z,5.18
2018-05-08T23:51:10.188Z,4.85
2018-05-08T23:53:37.698Z,5.43
2018-05-08T23:56:05.113Z,5.32
2018-05-08T23:58:32.538Z,5.45
